sensor_id;sensor_type;location;lat;lon;timestamp;temperature;humidity
55771;DHT22;41687;-33.234;-60.334;2023-02-28T00:01:25;28.80;51.80
55771;DHT22;41687;-33.234;-60.334;2023-02-28T00:03:53;28.70;51.80
55771;DHT22;41687;-33.234;-60.334;2023-02-28T00:06:21;28.70;51.90
55771;DHT22;41687;-33.234;-60.334;2023-02-28T00:08:48;28.70;51.90
55771;DHT22;41687;-33.234;-60.334;2023-02-28T00:11:17;28.70;51.80
55771;DHT22;41687;-33.234;-60.334;2023-02-28T00:13:46;28.70;51.70
55771;DHT22;41687;-33.234;-60.334;2023-02-28T00:16:23;28.70;51.80
55771;DHT22;41687;-33.234;-60.334;2023-02-28T00:18:51;28.70;52.30
55771;DHT22;41687;-33.234;-60.334;2023-02-28T00:21:19;28.60;51.90
55771;DHT22;41687;-33.234;-60.334;2023-02-28T00:23:47;28.60;51.90
55771;DHT22;41687;-33.234;-60.334;2023-02-28T00:26:15;28.60;51.90
55771;DHT22;41687;-33.234;-60.334;2023-02-28T00:28:45;28.60;51.90
55771;DHT22;41687;-33.234;-60.334;2023-02-28T00:31:16;28.60;52.00
55771;DHT22;41687;-33.234;-60.334;2023-02-28T00:33:45;28.60;52.10
55771;DHT22;41687;-33.234;-60.334;2023-02-28T00:36:14;28.50;52.10
55771;DHT22;41687;-33.234;-60.334;2023-02-28T00:38:42;28.50;52.20
55771;DHT22;41687;-33.234;-60.334;2023-02-28T00:41:10;28.50;52.30
55771;DHT22;41687;-33.234;-60.334;2023-02-28T00:43:39;28.50;52.30
55771;DHT22;41687;-33.234;-60.334;2023-02-28T00:46:07;28.40;52.30
55771;DHT22;41687;-33.234;-60.334;2023-02-28T00:48:35;28.40;52.50
55771;DHT22;41687;-33.234;-60.334;2023-02-28T00:51:03;28.40;52.80
55771;DHT22;41687;-33.234;-60.334;2023-02-28T00:53:31;28.40;52.80
55771;DHT22;41687;-33.234;-60.334;2023-02-28T00:56:02;28.30;53.20
55771;DHT22;41687;-33.234;-60.334;2023-02-28T00:58:32;28.30;53.90
55771;DHT22;41687;-33.234;-60.334;2023-02-28T01:01:00;28.20;54.90
55771;DHT22;41687;-33.234;-60.334;2023-02-28T01:03:28;28.10;55.20
55771;DHT22;41687;-33.234;-60.334;2023-02-28T01:05:56;28.00;55.40
55771;DHT22;41687;-33.234;-60.334;2023-02-28T01:08:24;28.00;55.30
55771;DHT22;41687;-33.234;-60.334;2023-02-28T01:10:53;28.00;55.50
55771;DHT22;41687;-33.234;-60.334;2023-02-28T01:13:22;27.90;55.70
55771;DHT22;41687;-33.234;-60.334;2023-02-28T01:15:53;27.90;55.90
55771;DHT22;41687;-33.234;-60.334;2023-02-28T01:18:22;27.80;56.20
55771;DHT22;41687;-33.234;-60.334;2023-02-28T01:20:51;27.80;56.10
55771;DHT22;41687;-33.234;-60.334;2023-02-28T01:23:20;27.70;55.80
55771;DHT22;41687;-33.234;-60.334;2023-02-28T01:25:52;27.80;55.80
55771;DHT22;41687;-33.234;-60.334;2023-02-28T01:28:20;27.70;56.00
55771;DHT22;41687;-33.234;-60.334;2023-02-28T01:30:51;27.70;55.70
55771;DHT22;41687;-33.234;-60.334;2023-02-28T01:33:19;27.70;56.00
55771;DHT22;41687;-33.234;-60.334;2023-02-28T01:35:47;27.70;55.80
55771;DHT22;41687;-33.234;-60.334;2023-02-28T01:38:16;27.70;55.60
55771;DHT22;41687;-33.234;-60.334;2023-02-28T01:40:46;27.70;55.60
55771;DHT22;41687;-33.234;-60.334;2023-02-28T01:45:56;27.50;57.60
55771;DHT22;41687;-33.234;-60.334;2023-02-28T01:48:29;27.50;56.30
55771;DHT22;41687;-33.234;-60.334;2023-02-28T01:51:06;27.50;56.60
55771;DHT22;41687;-33.234;-60.334;2023-02-28T01:53:41;27.40;57.50
55771;DHT22;41687;-33.234;-60.334;2023-02-28T01:56:15;27.40;57.40
55771;DHT22;41687;-33.234;-60.334;2023-02-28T01:58:50;27.40;57.30
55771;DHT22;41687;-33.234;-60.334;2023-02-28T02:01:22;27.40;56.90
55771;DHT22;41687;-33.234;-60.334;2023-02-28T02:04:02;27.40;57.90
55771;DHT22;41687;-33.234;-60.334;2023-02-28T02:06:36;27.40;60.30
55771;DHT22;41687;-33.234;-60.334;2023-02-28T02:09:09;27.30;59.40
55771;DHT22;41687;-33.234;-60.334;2023-02-28T02:11:40;27.30;58.30
55771;DHT22;41687;-33.234;-60.334;2023-02-28T02:17:38;27.20;61.60
55771;DHT22;41687;-33.234;-60.334;2023-02-28T02:23:27;27.10;61.70
55771;DHT22;41687;-33.234;-60.334;2023-02-28T02:28:47;26.90;59.90
55771;DHT22;41687;-33.234;-60.334;2023-02-28T02:34:46;26.90;62.10
55771;DHT22;41687;-33.234;-60.334;2023-02-28T02:37:43;26.90;59.50
55771;DHT22;41687;-33.234;-60.334;2023-02-28T02:40:25;26.80;62.10
55771;DHT22;41687;-33.234;-60.334;2023-02-28T02:42:56;26.70;62.20
55771;DHT22;41687;-33.234;-60.334;2023-02-28T02:45:42;26.70;60.30
55771;DHT22;41687;-33.234;-60.334;2023-02-28T02:48:18;26.70;62.10
55771;DHT22;41687;-33.234;-60.334;2023-02-28T02:50:53;26.70;60.90
55771;DHT22;41687;-33.234;-60.334;2023-02-28T02:53:30;26.70;60.80
55771;DHT22;41687;-33.234;-60.334;2023-02-28T02:56:01;26.60;60.60
55771;DHT22;41687;-33.234;-60.334;2023-02-28T02:58:36;26.60;59.60
55771;DHT22;41687;-33.234;-60.334;2023-02-28T03:01:16;26.60;59.30
55771;DHT22;41687;-33.234;-60.334;2023-02-28T03:04:01;26.50;60.00
55771;DHT22;41687;-33.234;-60.334;2023-02-28T03:06:30;26.40;59.30
55771;DHT22;41687;-33.234;-60.334;2023-02-28T03:08:59;26.30;59.40
55771;DHT22;41687;-33.234;-60.334;2023-02-28T03:11:28;26.30;59.50
55771;DHT22;41687;-33.234;-60.334;2023-02-28T03:27:02;26.00;60.50
55771;DHT22;41687;-33.234;-60.334;2023-02-28T03:29:42;25.90;61.40
55771;DHT22;41687;-33.234;-60.334;2023-02-28T03:32:35;25.80;62.00
55771;DHT22;41687;-33.234;-60.334;2023-02-28T03:35:08;25.80;62.40
55771;DHT22;41687;-33.234;-60.334;2023-02-28T03:37:38;25.70;60.50
55771;DHT22;41687;-33.234;-60.334;2023-02-28T03:40:17;25.70;60.90
55771;DHT22;41687;-33.234;-60.334;2023-02-28T03:42:50;25.80;61.50
55771;DHT22;41687;-33.234;-60.334;2023-02-28T03:45:26;25.70;60.90
55771;DHT22;41687;-33.234;-60.334;2023-02-28T03:48:20;25.60;62.10
55771;DHT22;41687;-33.234;-60.334;2023-02-28T03:50:53;25.50;63.10
55771;DHT22;41687;-33.234;-60.334;2023-02-28T03:53:32;25.50;62.00
55771;DHT22;41687;-33.234;-60.334;2023-02-28T03:58:57;25.40;63.30
55771;DHT22;41687;-33.234;-60.334;2023-02-28T04:01:30;25.30;61.90
55771;DHT22;41687;-33.234;-60.334;2023-02-28T04:03:59;25.30;61.80
55771;DHT22;41687;-33.234;-60.334;2023-02-28T04:06:27;25.30;62.30
55771;DHT22;41687;-33.234;-60.334;2023-02-28T04:08:55;25.30;62.10
55771;DHT22;41687;-33.234;-60.334;2023-02-28T04:11:50;25.30;62.30
55771;DHT22;41687;-33.234;-60.334;2023-02-28T04:14:23;25.30;65.00
55771;DHT22;41687;-33.234;-60.334;2023-02-28T04:16:50;25.20;62.70
55771;DHT22;41687;-33.234;-60.334;2023-02-28T04:19:19;25.20;62.90
55771;DHT22;41687;-33.234;-60.334;2023-02-28T04:21:50;25.10;63.50
55771;DHT22;41687;-33.234;-60.334;2023-02-28T04:24:19;25.10;64.80
55771;DHT22;41687;-33.234;-60.334;2023-02-28T04:26:50;25.10;63.80
55771;DHT22;41687;-33.234;-60.334;2023-02-28T04:31:54;25.10;65.50
55771;DHT22;41687;-33.234;-60.334;2023-02-28T04:34:25;25.00;64.30
55771;DHT22;41687;-33.234;-60.334;2023-02-28T04:36:54;24.90;64.70
55771;DHT22;41687;-33.234;-60.334;2023-02-28T04:39:23;24.90;65.00
55771;DHT22;41687;-33.234;-60.334;2023-02-28T04:41:51;24.90;65.30
55771;DHT22;41687;-33.234;-60.334;2023-02-28T04:44:19;24.80;65.50
55771;DHT22;41687;-33.234;-60.334;2023-02-28T04:46:48;24.80;65.40
55771;DHT22;41687;-33.234;-60.334;2023-02-28T04:49:17;24.70;65.40
55771;DHT22;41687;-33.234;-60.334;2023-02-28T04:51:45;24.70;65.40
55771;DHT22;41687;-33.234;-60.334;2023-02-28T04:54:12;24.70;64.50
55771;DHT22;41687;-33.234;-60.334;2023-02-28T04:56:40;24.80;64.90
55771;DHT22;41687;-33.234;-60.334;2023-02-28T04:59:08;24.70;64.90
55771;DHT22;41687;-33.234;-60.334;2023-02-28T05:01:36;24.70;65.30
55771;DHT22;41687;-33.234;-60.334;2023-02-28T05:04:04;24.70;65.70
55771;DHT22;41687;-33.234;-60.334;2023-02-28T05:06:34;24.70;65.70
55771;DHT22;41687;-33.234;-60.334;2023-02-28T05:09:02;24.60;65.40
55771;DHT22;41687;-33.234;-60.334;2023-02-28T05:11:33;24.60;65.20
55771;DHT22;41687;-33.234;-60.334;2023-02-28T05:14:09;24.60;66.00
55771;DHT22;41687;-33.234;-60.334;2023-02-28T05:16:38;24.70;66.20
55771;DHT22;41687;-33.234;-60.334;2023-02-28T05:19:05;24.60;65.40
55771;DHT22;41687;-33.234;-60.334;2023-02-28T05:21:36;24.60;64.90
55771;DHT22;41687;-33.234;-60.334;2023-02-28T05:24:07;24.60;65.30
55771;DHT22;41687;-33.234;-60.334;2023-02-28T05:26:38;24.60;65.80
55771;DHT22;41687;-33.234;-60.334;2023-02-28T05:29:07;24.50;65.80
55771;DHT22;41687;-33.234;-60.334;2023-02-28T05:31:35;24.50;65.90
55771;DHT22;41687;-33.234;-60.334;2023-02-28T05:34:04;24.50;66.30
55771;DHT22;41687;-33.234;-60.334;2023-02-28T05:36:31;24.50;66.00
55771;DHT22;41687;-33.234;-60.334;2023-02-28T05:38:59;24.50;65.90
55771;DHT22;41687;-33.234;-60.334;2023-02-28T05:41:26;24.40;65.80
55771;DHT22;41687;-33.234;-60.334;2023-02-28T05:43:54;24.40;65.90
55771;DHT22;41687;-33.234;-60.334;2023-02-28T05:46:22;24.40;66.10
55771;DHT22;41687;-33.234;-60.334;2023-02-28T05:48:50;24.20;66.80
55771;DHT22;41687;-33.234;-60.334;2023-02-28T05:51:18;24.20;66.90
55771;DHT22;41687;-33.234;-60.334;2023-02-28T05:53:46;24.20;66.80
55771;DHT22;41687;-33.234;-60.334;2023-02-28T05:56:15;24.20;67.10
55771;DHT22;41687;-33.234;-60.334;2023-02-28T05:58:42;24.10;67.40
55771;DHT22;41687;-33.234;-60.334;2023-02-28T06:01:31;24.10;67.10
55771;DHT22;41687;-33.234;-60.334;2023-02-28T06:04:01;24.20;69.00
55771;DHT22;41687;-33.234;-60.334;2023-02-28T06:06:29;24.20;67.40
55771;DHT22;41687;-33.234;-60.334;2023-02-28T06:08:56;24.20;67.30
55771;DHT22;41687;-33.234;-60.334;2023-02-28T06:11:24;24.20;67.40
55771;DHT22;41687;-33.234;-60.334;2023-02-28T06:13:56;24.20;67.20
55771;DHT22;41687;-33.234;-60.334;2023-02-28T06:16:26;24.20;67.10
55771;DHT22;41687;-33.234;-60.334;2023-02-28T06:18:54;24.20;67.10
55771;DHT22;41687;-33.234;-60.334;2023-02-28T06:21:24;24.20;66.80
55771;DHT22;41687;-33.234;-60.334;2023-02-28T06:23:51;24.20;66.50
55771;DHT22;41687;-33.234;-60.334;2023-02-28T06:26:20;24.20;66.10
55771;DHT22;41687;-33.234;-60.334;2023-02-28T06:28:49;24.20;65.90
55771;DHT22;41687;-33.234;-60.334;2023-02-28T06:31:18;24.30;66.10
55771;DHT22;41687;-33.234;-60.334;2023-02-28T06:33:46;24.30;65.80
55771;DHT22;41687;-33.234;-60.334;2023-02-28T06:36:15;24.30;65.40
55771;DHT22;41687;-33.234;-60.334;2023-02-28T06:38:44;24.20;65.50
55771;DHT22;41687;-33.234;-60.334;2023-02-28T06:41:12;24.10;65.50
55771;DHT22;41687;-33.234;-60.334;2023-02-28T06:43:41;24.10;65.70
55771;DHT22;41687;-33.234;-60.334;2023-02-28T06:46:12;24.10;65.30
55771;DHT22;41687;-33.234;-60.334;2023-02-28T06:48:44;24.10;65.50
55771;DHT22;41687;-33.234;-60.334;2023-02-28T06:51:15;24.10;65.50
55771;DHT22;41687;-33.234;-60.334;2023-02-28T06:53:43;24.10;66.10
55771;DHT22;41687;-33.234;-60.334;2023-02-28T06:56:11;24.00;66.30
55771;DHT22;41687;-33.234;-60.334;2023-02-28T06:58:39;24.00;66.50
55771;DHT22;41687;-33.234;-60.334;2023-02-28T07:01:07;24.00;67.10
55771;DHT22;41687;-33.234;-60.334;2023-02-28T07:03:36;23.90;67.90
55771;DHT22;41687;-33.234;-60.334;2023-02-28T07:06:05;23.90;68.20
55771;DHT22;41687;-33.234;-60.334;2023-02-28T07:08:34;24.00;67.90
55771;DHT22;41687;-33.234;-60.334;2023-02-28T07:11:03;24.00;67.40
55771;DHT22;41687;-33.234;-60.334;2023-02-28T07:13:32;23.90;66.80
55771;DHT22;41687;-33.234;-60.334;2023-02-28T07:16:05;23.90;67.10
55771;DHT22;41687;-33.234;-60.334;2023-02-28T07:18:35;23.80;67.30
55771;DHT22;41687;-33.234;-60.334;2023-02-28T07:21:08;23.80;66.60
55771;DHT22;41687;-33.234;-60.334;2023-02-28T07:23:37;23.70;67.40
55771;DHT22;41687;-33.234;-60.334;2023-02-28T07:26:06;23.70;67.00
55771;DHT22;41687;-33.234;-60.334;2023-02-28T07:28:34;23.80;66.80
55771;DHT22;41687;-33.234;-60.334;2023-02-28T07:31:09;23.80;66.80
55771;DHT22;41687;-33.234;-60.334;2023-02-28T07:33:37;23.70;67.80
55771;DHT22;41687;-33.234;-60.334;2023-02-28T07:36:07;23.60;67.20
55771;DHT22;41687;-33.234;-60.334;2023-02-28T07:38:36;23.50;67.60
55771;DHT22;41687;-33.234;-60.334;2023-02-28T07:41:04;23.60;67.60
55771;DHT22;41687;-33.234;-60.334;2023-02-28T07:43:32;23.50;67.60
55771;DHT22;41687;-33.234;-60.334;2023-02-28T07:46:11;23.50;67.70
55771;DHT22;41687;-33.234;-60.334;2023-02-28T07:48:39;23.50;69.60
55771;DHT22;41687;-33.234;-60.334;2023-02-28T07:51:07;23.50;67.90
55771;DHT22;41687;-33.234;-60.334;2023-02-28T07:53:35;23.50;68.00
55771;DHT22;41687;-33.234;-60.334;2023-02-28T07:56:03;23.40;68.00
55771;DHT22;41687;-33.234;-60.334;2023-02-28T07:58:31;23.40;68.10
55771;DHT22;41687;-33.234;-60.334;2023-02-28T08:01:09;23.40;68.20
55771;DHT22;41687;-33.234;-60.334;2023-02-28T08:03:38;23.40;69.30
55771;DHT22;41687;-33.234;-60.334;2023-02-28T08:06:07;23.50;68.00
55771;DHT22;41687;-33.234;-60.334;2023-02-28T08:08:35;23.40;68.10
55771;DHT22;41687;-33.234;-60.334;2023-02-28T08:11:03;23.40;68.40
55771;DHT22;41687;-33.234;-60.334;2023-02-28T08:13:31;23.30;68.50
55771;DHT22;41687;-33.234;-60.334;2023-02-28T08:16:01;23.30;69.00
55771;DHT22;41687;-33.234;-60.334;2023-02-28T08:18:29;23.30;69.60
55771;DHT22;41687;-33.234;-60.334;2023-02-28T08:20:57;23.20;69.40
55771;DHT22;41687;-33.234;-60.334;2023-02-28T08:23:26;23.10;69.40
55771;DHT22;41687;-33.234;-60.334;2023-02-28T08:25:57;23.20;69.90
55771;DHT22;41687;-33.234;-60.334;2023-02-28T08:28:25;23.20;70.50
55771;DHT22;41687;-33.234;-60.334;2023-02-28T08:30:53;23.20;70.00
55771;DHT22;41687;-33.234;-60.334;2023-02-28T08:33:23;22.80;73.00
55771;DHT22;41687;-33.234;-60.334;2023-02-28T08:35:57;22.60;72.70
55771;DHT22;41687;-33.234;-60.334;2023-02-28T08:38:25;22.70;73.00
55771;DHT22;41687;-33.234;-60.334;2023-02-28T08:41:04;22.70;71.90
55771;DHT22;41687;-33.234;-60.334;2023-02-28T08:43:36;22.70;73.30
55771;DHT22;41687;-33.234;-60.334;2023-02-28T08:46:04;22.70;72.20
55771;DHT22;41687;-33.234;-60.334;2023-02-28T08:48:34;22.50;72.80
55771;DHT22;41687;-33.234;-60.334;2023-02-28T08:51:07;22.40;72.60
55771;DHT22;41687;-33.234;-60.334;2023-02-28T08:53:37;22.20;72.80
55771;DHT22;41687;-33.234;-60.334;2023-02-28T08:56:15;22.30;72.50
55771;DHT22;41687;-33.234;-60.334;2023-02-28T08:58:44;22.40;72.60
55771;DHT22;41687;-33.234;-60.334;2023-02-28T09:01:32;22.40;71.20
55771;DHT22;41687;-33.234;-60.334;2023-02-28T09:04:01;22.50;72.10
55771;DHT22;41687;-33.234;-60.334;2023-02-28T09:06:29;22.60;70.10
55771;DHT22;41687;-33.234;-60.334;2023-02-28T09:08:57;22.70;70.00
55771;DHT22;41687;-33.234;-60.334;2023-02-28T09:11:26;22.70;69.90
55771;DHT22;41687;-33.234;-60.334;2023-02-28T09:13:54;22.70;69.80
55771;DHT22;41687;-33.234;-60.334;2023-02-28T09:16:25;22.70;69.90
55771;DHT22;41687;-33.234;-60.334;2023-02-28T09:18:53;22.70;69.60
55771;DHT22;41687;-33.234;-60.334;2023-02-28T09:21:21;22.80;70.10
55771;DHT22;41687;-33.234;-60.334;2023-02-28T09:23:50;22.80;70.00
55771;DHT22;41687;-33.234;-60.334;2023-02-28T09:26:21;22.80;70.30
55771;DHT22;41687;-33.234;-60.334;2023-02-28T09:28:51;22.90;70.50
55771;DHT22;41687;-33.234;-60.334;2023-02-28T09:31:22;22.90;70.00
55771;DHT22;41687;-33.234;-60.334;2023-02-28T09:33:52;23.00;70.10
55771;DHT22;41687;-33.234;-60.334;2023-02-28T09:36:21;23.00;70.00
55771;DHT22;41687;-33.234;-60.334;2023-02-28T09:38:48;23.00;70.30
55771;DHT22;41687;-33.234;-60.334;2023-02-28T09:41:22;22.90;69.90
55771;DHT22;41687;-33.234;-60.334;2023-02-28T09:43:53;22.80;70.60
55771;DHT22;41687;-33.234;-60.334;2023-02-28T09:46:42;22.80;70.80
55771;DHT22;41687;-33.234;-60.334;2023-02-28T09:49:17;22.90;72.20
55771;DHT22;41687;-33.234;-60.334;2023-02-28T09:51:51;22.90;71.40
55771;DHT22;41687;-33.234;-60.334;2023-02-28T09:54:23;23.00;71.00
55771;DHT22;41687;-33.234;-60.334;2023-02-28T09:56:59;22.90;71.00
55771;DHT22;41687;-33.234;-60.334;2023-02-28T10:05:20;23.10;72.60
55771;DHT22;41687;-33.234;-60.334;2023-02-28T10:08:14;23.10;71.90
55771;DHT22;41687;-33.234;-60.334;2023-02-28T10:10:49;23.10;72.80
55771;DHT22;41687;-33.234;-60.334;2023-02-28T10:13:50;23.10;72.00
55771;DHT22;41687;-33.234;-60.334;2023-02-28T10:16:28;23.20;72.30
55771;DHT22;41687;-33.234;-60.334;2023-02-28T10:19:05;23.20;71.80
55771;DHT22;41687;-33.234;-60.334;2023-02-28T10:21:38;23.30;72.50
55771;DHT22;41687;-33.234;-60.334;2023-02-28T10:27:17;23.20;72.70
55771;DHT22;41687;-33.234;-60.334;2023-02-28T10:29:53;23.30;72.90
55771;DHT22;41687;-33.234;-60.334;2023-02-28T10:32:29;23.40;71.70
55771;DHT22;41687;-33.234;-60.334;2023-02-28T10:37:40;23.40;73.20
55771;DHT22;41687;-33.234;-60.334;2023-02-28T10:46:01;23.70;73.10
55771;DHT22;41687;-33.234;-60.334;2023-02-28T10:48:33;23.80;72.90
55771;DHT22;41687;-33.234;-60.334;2023-02-28T10:51:03;23.90;71.70
55771;DHT22;41687;-33.234;-60.334;2023-02-28T10:59:05;24.90;69.60
55771;DHT22;41687;-33.234;-60.334;2023-02-28T11:01:49;25.40;69.80
55771;DHT22;41687;-33.234;-60.334;2023-02-28T11:09:54;26.40;66.70
55771;DHT22;41687;-33.234;-60.334;2023-02-28T11:12:39;26.70;66.60
55771;DHT22;41687;-33.234;-60.334;2023-02-28T11:15:32;26.70;66.40
55771;DHT22;41687;-33.234;-60.334;2023-02-28T11:18:14;26.90;66.40
55771;DHT22;41687;-33.234;-60.334;2023-02-28T11:20:52;26.90;65.60
55771;DHT22;41687;-33.234;-60.334;2023-02-28T11:23:21;27.10;65.60
55771;DHT22;41687;-33.234;-60.334;2023-02-28T11:25:51;27.10;65.70
55771;DHT22;41687;-33.234;-60.334;2023-02-28T11:28:33;27.10;65.70
55771;DHT22;41687;-33.234;-60.334;2023-02-28T11:33:45;27.20;66.20
55771;DHT22;41687;-33.234;-60.334;2023-02-28T11:36:17;27.30;65.10
55771;DHT22;41687;-33.234;-60.334;2023-02-28T11:38:45;27.30;65.00
55771;DHT22;41687;-33.234;-60.334;2023-02-28T11:41:19;27.50;64.80
55771;DHT22;41687;-33.234;-60.334;2023-02-28T11:46:50;28.10;63.30
55771;DHT22;41687;-33.234;-60.334;2023-02-28T11:52:42;28.50;62.40
55771;DHT22;41687;-33.234;-60.334;2023-02-28T11:55:49;28.80;62.90
55771;DHT22;41687;-33.234;-60.334;2023-02-28T12:10:20;29.60;60.90
55771;DHT22;41687;-33.234;-60.334;2023-02-28T12:16:17;29.90;60.70
55771;DHT22;41687;-33.234;-60.334;2023-02-28T12:18:59;30.30;59.50
55771;DHT22;41687;-33.234;-60.334;2023-02-28T12:27:17;30.90;57.90
55771;DHT22;41687;-33.234;-60.334;2023-02-28T12:29:54;30.90;58.00
55771;DHT22;41687;-33.234;-60.334;2023-02-28T12:32:31;31.10;58.20
55771;DHT22;41687;-33.234;-60.334;2023-02-28T12:38:04;31.20;58.30
55771;DHT22;41687;-33.234;-60.334;2023-02-28T12:43:21;31.60;56.70
55771;DHT22;41687;-33.234;-60.334;2023-02-28T12:46:02;31.60;57.90
55771;DHT22;41687;-33.234;-60.334;2023-02-28T12:48:36;31.50;57.00
55771;DHT22;41687;-33.234;-60.334;2023-02-28T12:51:06;31.60;58.90
55771;DHT22;41687;-33.234;-60.334;2023-02-28T12:58:51;32.10;57.40
55771;DHT22;41687;-33.234;-60.334;2023-02-28T13:04:47;31.80;59.50
55771;DHT22;41687;-33.234;-60.334;2023-02-28T13:10:05;32.30;58.60
55771;DHT22;41687;-33.234;-60.334;2023-02-28T13:12:35;32.60;58.90
55771;DHT22;41687;-33.234;-60.334;2023-02-28T13:15:16;32.20;58.50
55771;DHT22;41687;-33.234;-60.334;2023-02-28T13:17:54;31.90;58.10
55771;DHT22;41687;-33.234;-60.334;2023-02-28T13:20:26;32.30;58.10
55771;DHT22;41687;-33.234;-60.334;2023-02-28T13:22:55;32.30;57.80
55771;DHT22;41687;-33.234;-60.334;2023-02-28T13:27:52;32.00;59.90
55771;DHT22;41687;-33.234;-60.334;2023-02-28T13:33:34;32.10;58.80
55771;DHT22;41687;-33.234;-60.334;2023-02-28T14:02:52;33.60;56.20
55771;DHT22;41687;-33.234;-60.334;2023-02-28T14:05:26;33.40;58.40
55771;DHT22;41687;-33.234;-60.334;2023-02-28T14:07:58;33.70;57.70
55771;DHT22;41687;-33.234;-60.334;2023-02-28T14:10:32;33.70;57.90
55771;DHT22;41687;-33.234;-60.334;2023-02-28T14:16:06;34.10;56.60
55771;DHT22;41687;-33.234;-60.334;2023-02-28T14:18:35;34.30;56.30
55771;DHT22;41687;-33.234;-60.334;2023-02-28T14:21:28;33.90;57.90
55771;DHT22;41687;-33.234;-60.334;2023-02-28T14:24:41;34.50;56.50
55771;DHT22;41687;-33.234;-60.334;2023-02-28T14:37:44;34.20;54.70
55771;DHT22;41687;-33.234;-60.334;2023-02-28T14:40:29;34.10;57.60
55771;DHT22;41687;-33.234;-60.334;2023-02-28T14:43:00;33.70;56.20
55771;DHT22;41687;-33.234;-60.334;2023-02-28T14:45:31;33.70;57.30
55771;DHT22;41687;-33.234;-60.334;2023-02-28T14:48:01;34.30;57.10
55771;DHT22;41687;-33.234;-60.334;2023-02-28T14:50:35;34.20;56.80
55771;DHT22;41687;-33.234;-60.334;2023-02-28T14:53:04;34.30;56.10
55771;DHT22;41687;-33.234;-60.334;2023-02-28T14:55:35;34.30;56.80
55771;DHT22;41687;-33.234;-60.334;2023-02-28T14:58:05;34.20;55.90
55771;DHT22;41687;-33.234;-60.334;2023-02-28T15:00:36;34.10;56.30
55771;DHT22;41687;-33.234;-60.334;2023-02-28T15:06:13;34.40;54.50
55771;DHT22;41687;-33.234;-60.334;2023-02-28T15:08:41;34.70;56.10
55771;DHT22;41687;-33.234;-60.334;2023-02-28T15:11:19;34.30;56.60
55771;DHT22;41687;-33.234;-60.334;2023-02-28T15:13:52;34.00;55.60
55771;DHT22;41687;-33.234;-60.334;2023-02-28T15:16:39;34.20;56.90
55771;DHT22;41687;-33.234;-60.334;2023-02-28T15:21:45;34.60;56.60
55771;DHT22;41687;-33.234;-60.334;2023-02-28T15:24:16;34.90;56.10
55771;DHT22;41687;-33.234;-60.334;2023-02-28T15:26:56;34.70;56.20
55771;DHT22;41687;-33.234;-60.334;2023-02-28T15:29:27;34.90;55.60
55771;DHT22;41687;-33.234;-60.334;2023-02-28T15:34:30;35.10;55.50
55771;DHT22;41687;-33.234;-60.334;2023-02-28T15:37:01;35.10;53.50
55771;DHT22;41687;-33.234;-60.334;2023-02-28T15:39:29;35.00;56.70
55771;DHT22;41687;-33.234;-60.334;2023-02-28T15:42:19;35.00;55.70
55771;DHT22;41687;-33.234;-60.334;2023-02-28T15:44:48;35.10;54.30
55771;DHT22;41687;-33.234;-60.334;2023-02-28T15:47:23;34.80;55.70
55771;DHT22;41687;-33.234;-60.334;2023-02-28T15:49:57;34.60;54.80
55771;DHT22;41687;-33.234;-60.334;2023-02-28T15:52:39;34.80;55.10
55771;DHT22;41687;-33.234;-60.334;2023-02-28T15:55:26;34.40;53.80
55771;DHT22;41687;-33.234;-60.334;2023-02-28T15:57:56;34.30;53.50
55771;DHT22;41687;-33.234;-60.334;2023-02-28T16:00:29;34.10;55.30
55771;DHT22;41687;-33.234;-60.334;2023-02-28T16:02:59;34.50;55.90
55771;DHT22;41687;-33.234;-60.334;2023-02-28T16:05:29;34.80;55.10
55771;DHT22;41687;-33.234;-60.334;2023-02-28T16:08:06;34.80;54.90
55771;DHT22;41687;-33.234;-60.334;2023-02-28T16:10:38;34.70;54.50
55771;DHT22;41687;-33.234;-60.334;2023-02-28T16:13:05;34.50;55.10
55771;DHT22;41687;-33.234;-60.334;2023-02-28T16:15:38;34.80;55.00
55771;DHT22;41687;-33.234;-60.334;2023-02-28T16:18:11;34.60;53.80
55771;DHT22;41687;-33.234;-60.334;2023-02-28T16:20:40;34.20;53.80
55771;DHT22;41687;-33.234;-60.334;2023-02-28T16:23:08;33.90;55.50
55771;DHT22;41687;-33.234;-60.334;2023-02-28T16:25:40;34.40;55.30
55771;DHT22;41687;-33.234;-60.334;2023-02-28T16:28:21;34.60;55.30
55771;DHT22;41687;-33.234;-60.334;2023-02-28T16:30:52;34.50;54.30
55771;DHT22;41687;-33.234;-60.334;2023-02-28T16:33:19;34.40;53.50
55771;DHT22;41687;-33.234;-60.334;2023-02-28T16:35:48;34.00;55.40
55771;DHT22;41687;-33.234;-60.334;2023-02-28T16:38:16;34.20;55.20
55771;DHT22;41687;-33.234;-60.334;2023-02-28T16:40:44;34.40;55.40
55771;DHT22;41687;-33.234;-60.334;2023-02-28T16:43:17;34.60;54.80
55771;DHT22;41687;-33.234;-60.334;2023-02-28T16:45:47;34.60;54.90
55771;DHT22;41687;-33.234;-60.334;2023-02-28T16:48:16;34.40;54.10
55771;DHT22;41687;-33.234;-60.334;2023-02-28T16:50:43;34.40;55.50
55771;DHT22;41687;-33.234;-60.334;2023-02-28T16:53:11;34.20;55.20
55771;DHT22;41687;-33.234;-60.334;2023-02-28T16:55:39;34.30;55.20
55771;DHT22;41687;-33.234;-60.334;2023-02-28T16:58:10;33.80;54.50
55771;DHT22;41687;-33.234;-60.334;2023-02-28T17:00:41;33.70;55.20
55771;DHT22;41687;-33.234;-60.334;2023-02-28T17:03:24;34.00;55.50
55771;DHT22;41687;-33.234;-60.334;2023-02-28T17:05:53;33.70;54.10
55771;DHT22;41687;-33.234;-60.334;2023-02-28T17:08:20;33.90;55.40
55771;DHT22;41687;-33.234;-60.334;2023-02-28T17:10:48;33.90;55.30
55771;DHT22;41687;-33.234;-60.334;2023-02-28T17:13:15;34.10;55.10
55771;DHT22;41687;-33.234;-60.334;2023-02-28T17:15:44;33.80;54.30
55771;DHT22;41687;-33.234;-60.334;2023-02-28T17:18:18;33.90;54.20
55771;DHT22;41687;-33.234;-60.334;2023-02-28T17:20:46;33.80;54.30
55771;DHT22;41687;-33.234;-60.334;2023-02-28T17:23:13;33.80;54.90
55771;DHT22;41687;-33.234;-60.334;2023-02-28T17:25:42;33.90;55.30
55771;DHT22;41687;-33.234;-60.334;2023-02-28T17:28:23;34.10;55.00
55771;DHT22;41687;-33.234;-60.334;2023-02-28T17:30:51;34.10;54.00
55771;DHT22;41687;-33.234;-60.334;2023-02-28T17:33:19;34.10;54.30
55771;DHT22;41687;-33.234;-60.334;2023-02-28T17:35:47;33.90;53.20
55771;DHT22;41687;-33.234;-60.334;2023-02-28T17:38:17;33.50;54.50
55771;DHT22;41687;-33.234;-60.334;2023-02-28T17:40:45;33.20;54.30
55771;DHT22;41687;-33.234;-60.334;2023-02-28T17:43:12;33.10;55.00
55771;DHT22;41687;-33.234;-60.334;2023-02-28T17:45:42;33.10;54.80
55771;DHT22;41687;-33.234;-60.334;2023-02-28T17:48:11;33.10;55.10
55771;DHT22;41687;-33.234;-60.334;2023-02-28T17:50:39;33.20;55.20
55771;DHT22;41687;-33.234;-60.334;2023-02-28T17:53:07;33.30;55.20
55771;DHT22;41687;-33.234;-60.334;2023-02-28T17:55:35;33.40;54.50
55771;DHT22;41687;-33.234;-60.334;2023-02-28T17:58:03;33.10;53.60
55771;DHT22;41687;-33.234;-60.334;2023-02-28T18:00:31;33.00;53.80